Time;durP1;ratioP1;P1;durP2;ratioP2;P2;SDS_P1;SDS_P2;PMS_P1;PMS_P2;Temp;Humidity;BMP_temperature;BMP_pressure;BME280_temperature;BME280_humidity;BME280_pressure;Samples;Min_cycle;Max_cycle;Signal;HPM_P1;HPM_P2
2023/02/12 00:01:17;;;;;;;16.97;7.93;;;8.10;99.90;;;;;;5052075;28;20222;-72
2023/02/12 00:03:44;;;;;;;14.53;8.50;;;8.10;99.90;;;;;;5052012;28;20221;-72
2023/02/12 00:06:11;;;;;;;15.03;8.33;;;8.10;99.90;;;;;;5051283;28;20199;-73
2023/02/12 00:08:39;;;;;;;14.13;8.13;;;8.10;99.90;;;;;;5057708;28;20202;-72
2023/02/12 00:11:10;;;;;;;15.13;7.90;;;8.10;99.90;;;;;;5052750;28;20637;-74
2023/02/12 00:13:37;;;;;;;13.97;8.20;;;8.10;99.90;;;;;;5051689;28;20198;-73
2023/02/12 00:16:06;;;;;;;14.47;7.30;;;8.10;99.90;;;;;;5051402;28;20555;-72
2023/02/12 00:18:35;;;;;;;16.67;7.17;;;8.10;99.90;;;;;;5052126;28;20199;-72
2023/02/12 00:21:02;;;;;;;13.40;7.87;;;8.10;99.90;;;;;;5051494;28;20218;-72
2023/02/12 00:23:29;;;;;;;13.87;7.23;;;8.10;99.90;;;;;;5051337;28;20203;-72
2023/02/12 00:25:56;;;;;;;15.13;7.73;;;8.10;99.90;;;;;;5051433;28;20676;-72
2023/02/12 00:28:23;;;;;;;15.70;8.17;;;8.10;99.90;;;;;;5051710;28;20683;-72
2023/02/12 00:30:50;;;;;;;13.67;7.70;;;8.10;99.90;;;;;;5051400;28;20195;-72
2023/02/12 00:33:17;;;;;;;12.77;8.00;;;8.20;99.90;;;;;;5051709;28;20199;-72
2023/02/12 00:35:45;;;;;;;14.00;7.23;;;8.20;99.90;;;;;;5051799;28;20210;-72
2023/02/12 00:38:12;;;;;;;16.03;7.70;;;8.20;99.90;;;;;;5051767;28;20209;-72
2023/02/12 00:40:39;;;;;;;12.83;6.67;;;8.20;99.90;;;;;;5051972;28;20218;-72
2023/02/12 00:43:05;;;;;;;16.03;7.57;;;8.20;99.90;;;;;;5051091;28;20199;-72
2023/02/12 00:45:32;;;;;;;16.47;7.83;;;8.20;99.90;;;;;;5052923;28;20211;-79
2023/02/12 00:47:59;;;;;;;15.50;8.20;;;8.20;99.90;;;;;;5059343;28;20195;-78
2023/02/12 00:50:26;;;;;;;20.27;8.80;;;8.20;99.90;;;;;;5050775;28;20222;-71
2023/02/12 00:52:54;;;;;;;14.97;8.13;;;8.20;99.90;;;;;;5051050;28;20293;-71
2023/02/12 00:55:21;;;;;;;13.80;8.13;;;8.20;99.90;;;;;;5052090;28;20191;-71
2023/02/12 00:57:48;;;;;;;14.87;7.70;;;8.10;99.90;;;;;;5056200;28;20203;-71
2023/02/12 01:00:16;;;;;;;14.53;7.43;;;8.10;99.90;;;;;;5054479;28;20277;-71
2023/02/12 01:02:43;;;;;;;17.53;8.63;;;8.10;99.90;;;;;;5052400;28;20579;-72
2023/02/12 01:05:10;;;;;;;14.87;8.33;;;8.10;99.90;;;;;;5054527;28;20284;-71
2023/02/12 01:07:37;;;;;;;20.70;8.43;;;8.00;99.90;;;;;;5056007;28;20561;-78
2023/02/12 01:10:07;;;;;;;15.00;7.93;;;8.10;99.90;;;;;;5055385;28;20245;-79
2023/02/12 01:12:34;;;;;;;20.97;9.40;;;8.00;99.90;;;;;;5055501;28;20206;-80
2023/02/12 01:15:01;;;;;;;19.13;9.03;;;8.00;99.90;;;;;;5054934;28;20567;-72
2023/02/12 01:17:28;;;;;;;15.53;9.27;;;8.00;99.90;;;;;;5055623;28;20203;-79
2023/02/12 01:19:57;;;;;;;19.03;9.50;;;8.00;99.90;;;;;;5055152;28;20567;-77
2023/02/12 01:22:24;;;;;;;19.17;9.30;;;8.00;99.90;;;;;;5054889;28;20665;-79
2023/02/12 01:24:51;;;;;;;15.70;9.30;;;8.00;99.90;;;;;;5055255;28;20205;-71
2023/02/12 01:27:19;;;;;;;20.93;9.63;;;7.90;99.90;;;;;;5054574;28;20199;-71
2023/02/12 01:29:46;;;;;;;18.83;9.40;;;7.90;99.90;;;;;;5054525;28;20222;-70
2023/02/12 01:32:13;;;;;;;21.20;9.90;;;7.90;99.90;;;;;;5054977;28;20198;-71
2023/02/12 01:34:40;;;;;;;21.70;9.57;;;7.90;99.90;;;;;;5062807;28;20202;-72
2023/02/12 01:37:06;;;;;;;18.63;10.20;;;7.90;99.90;;;;;;5057951;28;20203;-71
2023/02/12 01:39:34;;;;;;;16.60;8.97;;;7.90;99.90;;;;;;5051896;28;20203;-71
2023/02/12 01:42:02;;;;;;;23.37;10.97;;;7.90;99.90;;;;;;5054750;28;20215;-71
2023/02/12 01:44:32;;;;;;;17.10;10.00;;;7.80;99.90;;;;;;5053898;28;20206;-71
2023/02/12 01:47:00;;;;;;;19.00;9.77;;;7.80;99.90;;;;;;5055214;28;20644;-72
2023/02/12 01:49:31;;;;;;;17.30;9.73;;;7.80;99.90;;;;;;5055568;28;20207;-72
2023/02/12 01:52:02;;;;;;;20.00;10.17;;;7.80;99.90;;;;;;5061651;28;20202;-72
2023/02/12 01:54:30;;;;;;;16.93;9.77;;;7.70;99.90;;;;;;5047843;28;20207;-70
2023/02/12 01:56:57;;;;;;;19.07;9.17;;;7.70;99.90;;;;;;5055060;28;20202;-78
2023/02/12 01:59:24;;;;;;;16.50;9.67;;;7.70;99.90;;;;;;5053859;28;20696;-72
2023/02/12 02:01:54;;;;;;;18.33;9.60;;;7.70;99.90;;;;;;5054143;28;20238;-76
2023/02/12 02:04:28;;;;;;;17.63;9.70;;;7.60;99.90;;;;;;5062576;28;20667;-70
2023/02/12 02:06:58;;;;;;;16.10;9.23;;;7.60;99.90;;;;;;5059212;28;20205;-75
2023/02/12 02:09:26;;;;;;;18.73;8.77;;;7.60;99.90;;;;;;5059465;28;20645;-78
2023/02/12 02:14:38;;;;;;;17.23;9.20;;;7.60;99.90;;;;;;5054540;28;20268;-73
2023/02/12 02:17:33;;;;;;;15.73;9.23;;;7.60;99.90;;;;;;5054321;28;20191;-77
2023/02/12 02:20:33;;;;;;;17.80;9.17;;;7.60;99.90;;;;;;5053417;28;20191;-76
2023/02/12 02:23:15;;;;;;;19.23;8.90;;;7.60;99.90;;;;;;5054605;28;20223;-80
2023/02/12 02:26:11;;;;;;;17.80;8.83;;;7.60;99.90;;;;;;5053635;28;20210;-73
2023/02/12 02:29:04;;;;;;;18.47;9.27;;;7.60;99.90;;;;;;5017539;28;20195;-72
2023/02/12 02:31:39;;;;;;;19.43;10.00;;;7.60;99.90;;;;;;5053835;28;20554;-76
2023/02/12 02:34:12;;;;;;;16.90;9.53;;;7.60;99.90;;;;;;5053437;28;20199;-72
2023/02/12 02:36:44;;;;;;;15.30;8.87;;;7.60;99.90;;;;;;5053161;28;20202;-79
2023/02/12 02:39:19;;;;;;;22.87;9.97;;;7.50;99.90;;;;;;5053069;28;20206;-79
2023/02/12 02:41:50;;;;;;;19.23;9.77;;;7.60;99.90;;;;;;5053938;28;20585;-79
2023/02/12 02:44:21;;;;;;;19.20;9.87;;;7.50;99.90;;;;;;5053028;28;20205;-78
2023/02/12 02:46:53;;;;;;;17.67;9.50;;;7.50;99.90;;;;;;5062127;28;20211;-72
2023/02/12 02:49:23;;;;;;;16.97;9.77;;;7.50;99.90;;;;;;5062261;28;20290;-72
2023/02/12 02:51:55;;;;;;;15.50;9.13;;;7.50;99.90;;;;;;5057217;28;20644;-76
2023/02/12 02:54:27;;;;;;;18.17;10.20;;;7.50;99.90;;;;;;5065531;28;20202;-71
2023/02/12 02:57:00;;;;;;;17.43;9.90;;;7.50;99.90;;;;;;5060025;28;20203;-72
2023/02/12 02:59:31;;;;;;;17.53;10.17;;;7.40;99.90;;;;;;5086294;22;20652;-73
2023/02/12 03:02:04;;;;;;;14.90;9.03;;;7.40;99.90;;;;;;5072681;28;20317;-73
2023/02/12 03:04:35;;;;;;;15.93;8.93;;;7.40;99.90;;;;;;5072828;28;20190;-73
2023/02/12 03:07:08;;;;;;;13.37;8.63;;;7.40;99.90;;;;;;5073836;28;20213;-73
2023/02/12 03:09:38;;;;;;;16.83;9.33;;;7.40;99.90;;;;;;5073173;28;20211;-73
2023/02/12 03:12:09;;;;;;;16.80;9.13;;;7.40;99.90;;;;;;5073022;28;20640;-73
2023/02/12 03:14:42;;;;;;;17.10;9.67;;;7.40;99.90;;;;;;5073510;28;20670;-73
2023/02/12 03:17:16;;;;;;;15.83;9.00;;;7.40;99.90;;;;;;5073486;28;20194;-73
2023/02/12 03:19:47;;;;;;;18.80;9.97;;;7.40;99.90;;;;;;5071598;28;20227;-73
2023/02/12 03:22:18;;;;;;;16.57;8.30;;;7.40;99.90;;;;;;5072785;28;20214;-78
2023/02/12 03:24:49;;;;;;;18.53;9.27;;;7.40;99.90;;;;;;5072945;28;20205;-78
2023/02/12 03:27:20;;;;;;;20.23;9.60;;;7.40;99.90;;;;;;5073436;28;20568;-78
2023/02/12 03:29:47;;;;;;;17.63;10.13;;;7.30;99.90;;;;;;5072344;28;20210;-79
2023/02/12 03:32:27;;;;;;;18.87;10.17;;;7.40;99.90;;;;;;5063521;28;20191;-78
2023/02/12 03:35:02;;;;;;;16.87;9.57;;;7.40;99.90;;;;;;5059068;28;20198;-78
2023/02/12 03:37:33;;;;;;;17.23;9.60;;;7.30;99.90;;;;;;5072424;28;20198;-79
2023/02/12 03:40:07;;;;;;;18.50;11.20;;;7.30;99.90;;;;;;5073059;28;20210;-78
2023/02/12 03:42:39;;;;;;;17.40;10.73;;;7.30;99.90;;;;;;5071465;28;20583;-78
2023/02/12 03:45:14;;;;;;;19.43;10.60;;;7.30;99.90;;;;;;5072390;28;20194;-79
2023/02/12 03:47:47;;;;;;;21.23;11.87;;;7.30;99.90;;;;;;5072493;28;20706;-78
2023/02/12 03:50:20;;;;;;;20.73;11.40;;;7.30;99.90;;;;;;5072300;28;20581;-79
2023/02/12 03:52:49;;;;;;;22.17;12.27;;;7.30;99.90;;;;;;5052858;28;20658;-78
2023/02/12 03:55:17;;;;;;;23.27;11.83;;;7.30;99.90;;;;;;5061368;28;20206;-78
2023/02/12 03:57:48;;;;;;;23.37;10.60;;;7.20;99.90;;;;;;5072645;28;20395;-78
2023/02/12 04:00:18;;;;;;;20.10;10.50;;;7.20;99.90;;;;;;5072021;28;20581;-79
2023/02/12 04:02:47;;;;;;;21.90;11.03;;;7.20;99.90;;;;;;5072368;28;20215;-79
2023/02/12 04:05:19;;;;;;;19.30;11.13;;;7.20;99.90;;;;;;5071849;28;20228;-79
2023/02/12 04:07:46;;;;;;;20.40;10.70;;;7.20;99.90;;;;;;5072915;28;20682;-78
2023/02/12 04:10:13;;;;;;;17.77;11.00;;;7.20;99.90;;;;;;5071356;28;20667;-78
2023/02/12 04:12:46;;;;;;;20.43;11.17;;;7.20;99.90;;;;;;5063893;28;20194;-78
2023/02/12 04:15:43;;;;;;;19.40;11.07;;;7.10;99.90;;;;;;5065168;28;20206;-79
2023/02/12 04:18:19;;;;;;;19.63;10.03;;;7.10;99.90;;;;;;5062032;28;20206;-78
2023/02/12 04:20:58;;;;;;;19.40;9.60;;;7.10;99.90;;;;;;5072253;28;20555;-78
2023/02/12 04:23:41;;;;;;;22.67;11.80;;;7.10;99.90;;;;;;5070798;28;20222;-78
2023/02/12 04:26:14;;;;;;;19.30;10.40;;;7.10;99.90;;;;;;5072390;28;20570;-78
2023/02/12 04:28:47;;;;;;;18.43;10.97;;;7.10;99.90;;;;;;5071391;28;20202;-79
2023/02/12 04:31:24;;;;;;;22.27;11.23;;;7.10;99.90;;;;;;5071058;28;20202;-78
2023/02/12 04:34:04;;;;;;;22.23;10.77;;;7.00;99.90;;;;;;5062590;28;20236;-78
2023/02/12 04:36:35;;;;;;;20.80;11.13;;;7.00;99.90;;;;;;5069356;28;20216;-79
2023/02/12 04:39:05;;;;;;;20.80;11.20;;;7.00;99.90;;;;;;5071510;28;20206;-78
2023/02/12 04:41:32;;;;;;;20.67;10.63;;;7.00;99.90;;;;;;5071518;28;20194;-79
2023/02/12 04:44:12;;;;;;;22.00;11.73;;;7.00;99.90;;;;;;5071790;28;20198;-78
2023/02/12 04:46:39;;;;;;;20.77;11.67;;;6.90;99.90;;;;;;5071921;28;20206;-78
2023/02/12 04:49:14;;;;;;;22.37;11.97;;;6.90;99.90;;;;;;5072016;28;20210;-78
2023/02/12 04:51:40;;;;;;;22.43;12.37;;;7.00;99.90;;;;;;5072092;28;20213;-78
2023/02/12 04:54:07;;;;;;;21.57;11.40;;;6.90;99.90;;;;;;5071643;28;20209;-78
2023/02/12 04:56:34;;;;;;;22.83;11.83;;;6.90;99.90;;;;;;5071817;28;20194;-79
2023/02/12 04:59:02;;;;;;;22.23;11.63;;;6.90;99.90;;;;;;5071808;28;20199;-79
2023/02/12 05:01:29;;;;;;;20.27;12.13;;;6.90;99.90;;;;;;5071447;28;20232;-79
2023/02/12 05:04:02;;;;;;;19.97;11.43;;;6.90;99.90;;;;;;5071594;28;20198;-79
2023/02/12 05:06:30;;;;;;;23.03;12.30;;;6.90;99.90;;;;;;5071058;28;20571;-79
2023/02/12 05:08:57;;;;;;;22.67;11.13;;;6.90;99.90;;;;;;5063270;28;20202;-79
2023/02/12 05:11:24;;;;;;;23.43;11.70;;;6.90;99.90;;;;;;5071643;28;20205;-79
2023/02/12 05:13:51;;;;;;;22.93;12.43;;;6.90;99.90;;;;;;5071040;28;20194;-79
2023/02/12 05:16:19;;;;;;;20.03;11.47;;;6.80;99.90;;;;;;5071655;28;20659;-79
2023/02/12 05:18:46;;;;;;;20.47;11.17;;;6.90;99.90;;;;;;5070399;28;20205;-79
2023/02/12 05:21:13;;;;;;;23.47;12.67;;;6.80;99.90;;;;;;5072058;28;20237;-79
2023/02/12 05:23:43;;;;;;;21.63;11.77;;;6.80;99.90;;;;;;5067738;28;20240;-79
2023/02/12 05:26:13;;;;;;;19.07;11.00;;;6.80;99.90;;;;;;5063414;28;20655;-79
2023/02/12 05:28:40;;;;;;;20.33;11.23;;;6.90;99.90;;;;;;5069755;28;20203;-79
2023/02/12 05:31:21;;;;;;;19.17;10.60;;;6.80;99.90;;;;;;5064658;28;20205;-79
2023/02/12 05:33:48;;;;;;;20.23;10.93;;;6.80;99.90;;;;;;5068048;28;20290;-79
2023/02/12 05:36:16;;;;;;;20.03;10.87;;;6.80;99.90;;;;;;5070178;28;20207;-79
2023/02/12 05:38:44;;;;;;;21.20;11.73;;;6.80;99.90;;;;;;5068306;28;20678;-79
2023/02/12 05:41:14;;;;;;;19.67;11.03;;;6.80;99.90;;;;;;5066089;28;20201;-79
2023/02/12 05:43:41;;;;;;;25.77;12.80;;;6.80;99.90;;;;;;5069648;28;20218;-79
2023/02/12 05:46:09;;;;;;;21.43;11.77;;;6.80;99.90;;;;;;5068500;28;20202;-78
2023/02/12 05:48:36;;;;;;;18.83;11.27;;;6.80;99.90;;;;;;5069249;28;20198;-79
2023/02/12 05:51:04;;;;;;;21.97;12.47;;;6.80;99.90;;;;;;5073216;28;20198;-79
2023/02/12 05:53:31;;;;;;;20.60;11.77;;;6.80;99.90;;;;;;5068633;28;20559;-79
2023/02/12 05:56:09;;;;;;;21.97;12.07;;;6.80;99.90;;;;;;5073358;28;20198;-79
2023/02/12 05:58:36;;;;;;;20.93;11.93;;;6.80;99.90;;;;;;5068452;28;20214;-79
2023/02/12 06:01:08;;;;;;;22.07;12.00;;;6.80;99.90;;;;;;5070354;28;20649;-79
2023/02/12 06:03:35;;;;;;;19.97;11.50;;;6.70;99.90;;;;;;5071167;28;20232;-79
2023/02/12 06:06:02;;;;;;;19.37;11.57;;;6.70;99.90;;;;;;5069012;28;20203;-79
2023/02/12 06:08:29;;;;;;;23.73;12.63;;;6.70;99.90;;;;;;5071633;28;20214;-79
2023/02/12 06:10:59;;;;;;;22.40;12.33;;;6.70;99.90;;;;;;5070446;28;20206;-79
2023/02/12 06:13:29;;;;;;;20.37;12.73;;;6.70;99.90;;;;;;5069067;28;20220;-79
2023/02/12 06:15:56;;;;;;;22.30;10.97;;;6.70;99.90;;;;;;5068535;28;20205;-79
2023/02/12 06:18:23;;;;;;;20.87;11.83;;;6.70;99.90;;;;;;5069008;28;20224;-79
2023/02/12 06:20:50;;;;;;;23.10;12.10;;;6.60;99.90;;;;;;5064090;28;20565;-78
2023/02/12 06:23:16;;;;;;;22.97;12.57;;;6.70;99.90;;;;;;5068509;28;20217;-79
2023/02/12 06:25:43;;;;;;;25.20;12.77;;;6.70;99.90;;;;;;5067408;28;20206;-78
2023/02/12 06:28:10;;;;;;;22.23;12.07;;;6.70;99.90;;;;;;5071904;28;20202;-79
2023/02/12 06:30:38;;;;;;;21.33;11.97;;;6.70;99.90;;;;;;5068409;28;20205;-79
2023/02/12 06:33:06;;;;;;;23.57;12.60;;;6.70;99.90;;;;;;5068431;28;20202;-78
2023/02/12 06:35:35;;;;;;;26.17;12.07;;;6.70;99.90;;;;;;5069691;28;20248;-78
2023/02/12 06:38:02;;;;;;;23.23;13.20;;;6.70;99.90;;;;;;5069933;28;20203;-78
2023/02/12 06:40:30;;;;;;;24.30;12.67;;;6.70;99.90;;;;;;5068032;28;20211;-78
2023/02/12 06:42:57;;;;;;;21.27;12.53;;;6.70;99.90;;;;;;5067776;28;20233;-78
2023/02/12 06:45:34;;;;;;;23.57;13.47;;;6.70;99.90;;;;;;5072141;28;20221;-79
2023/02/12 06:48:02;;;;;;;22.53;12.47;;;6.70;99.90;;;;;;5070922;28;20206;-78
2023/02/12 06:50:30;;;;;;;22.10;12.73;;;6.70;99.90;;;;;;5072562;28;20217;-78
2023/02/12 06:52:58;;;;;;;24.13;13.13;;;6.70;99.90;;;;;;5068894;28;20194;-79
2023/02/12 06:55:25;;;;;;;23.90;12.67;;;6.70;99.90;;;;;;5068904;28;20570;-72
2023/02/12 06:57:52;;;;;;;31.23;14.07;;;6.70;99.90;;;;;;5069449;28;20664;-73
2023/02/12 07:00:20;;;;;;;25.30;14.47;;;6.70;99.90;;;;;;5070517;28;20667;-73
2023/02/12 07:02:52;;;;;;;24.10;13.73;;;6.70;99.90;;;;;;5068803;28;20221;-72
2023/02/12 07:05:21;;;;;;;24.07;11.80;;;6.70;99.90;;;;;;5068145;28;20203;-72
2023/02/12 07:07:48;;;;;;;23.27;12.10;;;6.70;99.90;;;;;;5070909;28;20202;-72
2023/02/12 07:10:14;;;;;;;22.73;12.37;;;6.70;99.90;;;;;;5067839;28;20206;-72
2023/02/12 07:12:41;;;;;;;26.47;13.47;;;6.70;99.90;;;;;;5068343;28;20199;-72
2023/02/12 07:15:09;;;;;;;21.93;11.97;;;6.70;99.90;;;;;;5067398;28;20205;-72
2023/02/12 07:17:36;;;;;;;23.27;12.00;;;6.70;99.90;;;;;;5072031;28;20203;-72
2023/02/12 07:20:03;;;;;;;21.67;12.20;;;6.70;99.90;;;;;;5069777;28;20678;-74
2023/02/12 07:22:31;;;;;;;22.20;12.50;;;6.70;99.90;;;;;;5066629;28;20202;-74
2023/02/12 07:24:58;;;;;;;22.20;11.80;;;6.80;99.90;;;;;;5067095;28;20655;-74
2023/02/12 07:27:25;;;;;;;21.43;11.83;;;6.80;99.90;;;;;;5067680;28;20203;-74
2023/02/12 07:29:51;;;;;;;22.23;12.53;;;6.80;99.90;;;;;;5067062;28;20683;-74
2023/02/12 07:32:18;;;;;;;21.83;12.33;;;6.80;99.90;;;;;;5068669;28;20234;-74
2023/02/12 07:34:46;;;;;;;20.70;11.83;;;6.80;99.90;;;;;;5066985;28;20225;-74
2023/02/12 07:37:13;;;;;;;25.77;13.30;;;6.80;99.90;;;;;;5067054;28;20609;-74
2023/02/12 07:39:41;;;;;;;22.60;12.50;;;6.80;99.90;;;;;;5068861;28;20221;-74
2023/02/12 07:42:08;;;;;;;22.03;12.70;;;6.90;99.90;;;;;;5062871;28;20213;-74
2023/02/12 07:44:35;;;;;;;23.33;12.27;;;6.90;99.90;;;;;;5071041;28;20218;-74
2023/02/12 07:47:04;;;;;;;25.50;12.50;;;6.90;99.90;;;;;;5066759;28;20198;-74
2023/02/12 07:49:31;;;;;;;23.83;12.60;;;7.00;99.90;;;;;;5063729;28;20607;-74
2023/02/12 07:51:58;;;;;;;19.83;11.90;;;7.00;99.90;;;;;;5069038;28;20203;-74
2023/02/12 07:54:25;;;;;;;22.00;12.23;;;7.00;99.90;;;;;;5067130;28;20815;-74
2023/02/12 07:56:53;;;;;;;21.40;11.00;;;7.10;99.90;;;;;;5070095;28;20206;-74
2023/02/12 07:59:20;;;;;;;24.77;13.07;;;7.10;99.90;;;;;;5068119;28;20202;-73
2023/02/12 08:01:49;;;;;;;22.87;11.83;;;7.10;99.90;;;;;;5066454;28;20206;-74
2023/02/12 08:04:17;;;;;;;20.53;12.27;;;7.20;99.90;;;;;;5062306;28;20215;-74
2023/02/12 08:06:46;;;;;;;22.03;11.33;;;7.20;99.90;;;;;;5067428;28;20202;-74
2023/02/12 08:09:16;;;;;;;23.70;11.27;;;7.20;99.90;;;;;;5070437;28;20466;-74
2023/02/12 08:11:44;;;;;;;21.10;12.60;;;7.30;99.90;;;;;;5068381;28;20564;-74
2023/02/12 08:14:13;;;;;;;23.20;12.27;;;7.30;99.90;;;;;;5065874;28;20191;-74
2023/02/12 08:16:42;;;;;;;19.87;11.73;;;7.40;99.90;;;;;;5068028;28;20202;-74
2023/02/12 08:19:09;;;;;;;23.87;13.40;;;7.40;99.90;;;;;;5068698;28;20205;-74
2023/02/12 08:21:36;;;;;;;27.77;12.77;;;7.40;99.90;;;;;;5068399;28;20778;-74
2023/02/12 08:24:03;;;;;;;22.93;13.60;;;7.50;99.90;;;;;;5067353;28;20222;-74
2023/02/12 08:26:33;;;;;;;24.67;13.13;;;7.50;99.90;;;;;;5067115;28;20205;-73
2023/02/12 08:29:02;;;;;;;23.50;12.70;;;7.50;99.90;;;;;;5065528;28;20194;-74
2023/02/12 08:31:32;;;;;;;22.63;12.40;;;7.50;99.90;;;;;;5067772;28;20647;-74
2023/02/12 08:34:00;;;;;;;25.23;13.30;;;7.60;99.90;;;;;;5066550;28;20195;-74
2023/02/12 08:36:29;;;;;;;26.97;12.73;;;7.60;99.90;;;;;;5068928;28;20207;-74
2023/02/12 08:38:58;;;;;;;22.03;13.17;;;7.60;99.90;;;;;;5066982;28;20202;-73
2023/02/12 08:41:27;;;;;;;22.27;12.73;;;7.60;99.90;;;;;;5069235;28;20663;-74
2023/02/12 08:43:56;;;;;;;27.40;15.43;;;7.50;99.90;;;;;;5068320;28;20679;-74
2023/02/12 08:46:25;;;;;;;24.33;13.47;;;7.70;99.90;;;;;;5061813;28;20203;-74
2023/02/12 08:48:56;;;;;;;22.60;12.13;;;7.70;99.90;;;;;;5068968;28;20678;-74
2023/02/12 08:51:25;;;;;;;23.43;13.23;;;7.80;99.90;;;;;;5066094;28;20198;-74
2023/02/12 08:53:54;;;;;;;24.93;13.93;;;7.80;99.90;;;;;;5069377;28;20229;-76
2023/02/12 08:56:21;;;;;;;26.17;14.20;;;7.90;99.90;;;;;;5068067;28;20198;-75
2023/02/12 08:58:49;;;;;;;24.07;13.03;;;7.80;99.90;;;;;;5065587;28;20207;-75
2023/02/12 09:01:20;;;;;;;27.00;14.73;;;7.80;99.90;;;;;;5068822;28;20201;-75
2023/02/12 09:03:48;;;;;;;23.53;13.40;;;7.80;99.90;;;;;;5066979;28;20221;-75
2023/02/12 09:06:19;;;;;;;25.90;14.57;;;7.80;99.90;;;;;;5067384;28;20194;-75
2023/02/12 09:08:46;;;;;;;25.67;14.37;;;7.90;99.90;;;;;;5061434;28;20202;-75
2023/02/12 09:11:15;;;;;;;26.47;14.97;;;8.00;99.90;;;;;;5070058;28;20198;-76
2023/02/12 09:13:43;;;;;;;32.37;15.73;;;8.00;99.90;;;;;;5067381;28;20210;-76
2023/02/12 09:16:10;;;;;;;30.53;17.23;;;8.00;99.90;;;;;;5069206;28;20191;-76
2023/02/12 09:18:38;;;;;;;31.30;16.33;;;8.10;99.90;;;;;;5073346;28;20293;-76
2023/02/12 09:21:07;;;;;;;34.83;17.10;;;8.10;99.90;;;;;;5065243;28;20203;-76
2023/02/12 09:23:35;;;;;;;36.13;16.70;;;8.20;99.90;;;;;;5071343;28;20312;-76
2023/02/12 09:26:07;;;;;;;33.17;14.93;;;8.20;99.90;;;;;;5068222;28;20202;-76
2023/02/12 09:28:34;;;;;;;34.37;16.27;;;8.30;99.90;;;;;;5061003;28;20206;-76
2023/02/12 09:31:05;;;;;;;32.13;16.80;;;8.30;99.90;;;;;;5073328;28;20205;-76
2023/02/12 09:33:31;;;;;;;33.83;16.47;;;8.30;99.90;;;;;;5065528;28;20680;-75
2023/02/12 09:36:02;;;;;;;30.17;15.20;;;8.40;99.90;;;;;;5070818;28;20573;-75
2023/02/12 09:38:31;;;;;;;29.00;15.43;;;8.40;99.90;;;;;;5071397;28;20210;-76
2023/02/12 09:41:28;;;;;;;29.00;14.90;;;8.40;99.90;;;;;;5071130;28;20207;-76
2023/02/12 09:43:59;;;;;;;30.23;16.10;;;8.50;99.90;;;;;;5047767;28;20222;-76
2023/02/12 09:46:30;;;;;;;29.93;14.23;;;8.60;99.90;;;;;;5072191;28;20292;-76
2023/02/12 09:49:07;;;;;;;29.90;15.20;;;8.60;99.90;;;;;;5074656;28;20232;-76
2023/02/12 09:51:35;;;;;;;28.97;15.27;;;8.60;99.90;;;;;;5069871;28;20210;-75
2023/02/12 09:54:06;;;;;;;26.47;14.03;;;8.70;99.90;;;;;;5071040;28;20211;-75
2023/02/12 09:56:37;;;;;;;24.83;13.53;;;8.80;99.90;;;;;;5067786;28;20251;-75
2023/02/12 09:59:07;;;;;;;24.47;12.80;;;8.90;99.90;;;;;;5067561;28;20653;-76
2023/02/12 10:01:34;;;;;;;28.90;14.03;;;9.00;99.90;;;;;;5075076;28;20289;-76
2023/02/12 10:04:01;;;;;;;23.23;13.43;;;9.00;99.90;;;;;;5061305;28;20630;-76
2023/02/12 10:06:31;;;;;;;24.47;13.63;;;9.00;99.90;;;;;;5069594;28;20206;-76
2023/02/12 10:09:19;;;;;;;24.60;12.00;;;9.10;99.90;;;;;;5072040;28;20256;-76
2023/02/12 10:11:55;;;;;;;22.27;11.50;;;9.10;99.90;;;;;;5065890;28;20202;-76
2023/02/12 10:14:33;;;;;;;22.83;12.13;;;9.20;99.90;;;;;;5062607;28;20208;-76
2023/02/12 10:17:07;;;;;;;21.73;10.70;;;9.20;99.90;;;;;;5065947;28;20199;-76
2023/02/12 10:19:53;;;;;;;19.70;10.37;;;9.20;99.90;;;;;;5066359;28;20252;-75
2023/02/12 10:22:29;;;;;;;24.03;11.60;;;9.20;99.90;;;;;;5065610;28;20202;-76
2023/02/12 10:25:09;;;;;;;20.90;11.67;;;9.20;99.90;;;;;;5069773;28;20222;-76
2023/02/12 10:27:40;;;;;;;20.93;10.97;;;9.30;99.90;;;;;;5060071;28;20562;-76
2023/02/12 10:30:18;;;;;;;22.47;10.90;;;9.30;99.90;;;;;;5070875;28;20212;-76
2023/02/12 10:32:47;;;;;;;20.77;11.03;;;9.30;99.90;;;;;;5071003;28;20202;-76
2023/02/12 10:35:17;;;;;;;20.67;10.53;;;9.30;99.90;;;;;;5073308;28;20648;-76
2023/02/12 10:37:48;;;;;;;20.63;9.90;;;9.30;99.90;;;;;;5072483;28;20272;-74
2023/02/12 10:40:20;;;;;;;17.57;9.43;;;9.30;99.90;;;;;;5066842;28;20210;-74
2023/02/12 10:42:50;;;;;;;18.67;9.97;;;9.30;99.90;;;;;;5070382;28;20202;-74
2023/02/12 10:45:20;;;;;;;16.70;8.73;;;9.30;99.90;;;;;;5098077;22;20236;-82
2023/02/12 10:47:49;;;;;;;15.83;8.90;;;9.40;99.90;;;;;;5108550;28;20224;-81
2023/02/12 10:50:25;;;;;;;16.50;8.37;;;9.30;99.90;;;;;;5100871;28;20576;-81
2023/02/12 10:52:55;;;;;;;17.10;9.37;;;9.40;99.90;;;;;;5097954;28;20590;-81
2023/02/12 10:55:28;;;;;;;16.70;8.97;;;9.30;99.90;;;;;;5102775;28;20221;-81
2023/02/12 10:57:58;;;;;;;16.13;9.60;;;9.40;99.90;;;;;;5098650;28;20198;-81
2023/02/12 11:00:28;;;;;;;15.80;9.33;;;9.50;99.90;;;;;;5105361;28;20221;-82
2023/02/12 11:03:05;;;;;;;15.70;9.20;;;9.50;99.90;;;;;;5097191;28;20214;-82
2023/02/12 11:05:35;;;;;;;15.63;9.13;;;9.70;99.90;;;;;;5099180;28;20236;-82
2023/02/12 11:08:02;;;;;;;15.03;8.57;;;9.60;99.90;;;;;;5099641;28;20217;-82
2023/02/12 11:10:32;;;;;;;15.83;8.67;;;9.70;99.90;;;;;;5103477;28;20213;-82
2023/02/12 11:13:02;;;;;;;14.43;9.03;;;9.80;99.90;;;;;;5098114;28;20585;-83
2023/02/12 11:15:35;;;;;;;15.70;9.60;;;9.80;99.90;;;;;;5092273;28;20204;-82
2023/02/12 11:18:04;;;;;;;15.40;8.77;;;9.70;99.90;;;;;;5098522;28;20208;-82
2023/02/12 11:20:38;;;;;;;15.47;8.03;;;9.90;99.90;;;;;;5099717;28;20233;-82
2023/02/12 11:23:07;;;;;;;15.20;7.50;;;10.00;99.90;;;;;;5104881;28;20587;-82
2023/02/12 11:25:35;;;;;;;13.47;7.83;;;9.80;99.90;;;;;;5104022;28;20214;-82
2023/02/12 11:28:12;;;;;;;13.80;7.37;;;9.80;99.90;;;;;;5100474;28;20204;-82
2023/02/12 11:30:49;;;;;;;13.40;7.60;;;9.90;99.90;;;;;;5088896;28;20208;-82
2023/02/12 11:33:21;;;;;;;12.43;7.77;;;9.80;99.90;;;;;;5099299;28;20223;-82
2023/02/12 11:35:51;;;;;;;12.63;6.93;;;9.80;99.90;;;;;;5089482;28;20588;-82
2023/02/12 11:38:25;;;;;;;13.33;7.23;;;9.80;99.90;;;;;;5091111;28;20202;-82
2023/02/12 11:40:56;;;;;;;12.83;7.67;;;9.80;99.90;;;;;;5091883;28;20312;-82
2023/02/12 11:43:27;;;;;;;13.50;7.47;;;9.80;99.90;;;;;;5089942;28;20213;-83
2023/02/12 11:45:56;;;;;;;12.60;7.23;;;9.80;99.90;;;;;;5090797;28;20226;-83
2023/02/12 11:48:27;;;;;;;13.47;7.90;;;9.80;99.90;;;;;;5091007;28;20202;-83
2023/02/12 11:50:57;;;;;;;11.57;7.20;;;9.80;99.90;;;;;;5088627;28;20205;-83
2023/02/12 11:53:28;;;;;;;11.37;7.23;;;9.80;99.90;;;;;;5091521;28;20225;-83
2023/02/12 11:55:58;;;;;;;12.07;7.27;;;10.00;99.90;;;;;;5094659;28;20205;-83
2023/02/12 11:58:27;;;;;;;12.47;7.50;;;9.80;99.90;;;;;;5089606;28;20209;-83
2023/02/12 12:01:00;;;;;;;11.77;6.90;;;9.80;99.90;;;;;;5092751;28;20202;-84
2023/02/12 12:03:33;;;;;;;11.20;6.63;;;9.90;99.90;;;;;;5090683;28;20297;-83
2023/02/12 12:06:06;;;;;;;13.23;7.37;;;9.90;99.90;;;;;;5089185;28;20871;-83
2023/02/12 12:08:39;;;;;;;12.27;7.03;;;9.90;99.90;;;;;;5089506;28;20209;-83
2023/02/12 12:11:11;;;;;;;14.30;6.97;;;9.90;99.90;;;;;;5088100;27;20194;-83
2023/02/12 12:13:47;;;;;;;11.73;6.63;;;9.90;99.90;;;;;;5089517;28;20216;-83
2023/02/12 12:22:00;;;;;;;10.27;6.47;;;9.80;99.90;;;;;;5092711;28;20507;-80
2023/02/12 12:24:34;;;;;;;7.83;5.27;;;9.90;99.90;;;;;;5091081;28;20233;-81
2023/02/12 12:27:23;;;;;;;11.77;7.47;;;10.00;99.90;;;;;;5092732;28;20197;-81
2023/02/12 12:29:55;;;;;;;9.70;6.67;;;10.00;99.90;;;;;;5098924;28;20645;-80
2023/02/12 12:32:24;;;;;;;9.83;5.90;;;10.00;99.90;;;;;;5091983;28;20285;-81
2023/02/12 12:34:51;;;;;;;10.93;5.83;;;10.10;99.90;;;;;;5091120;28;20198;-81
2023/02/12 12:37:34;;;;;;;8.77;5.43;;;10.20;99.90;;;;;;5087829;28;20204;-80
2023/02/12 12:40:24;;;;;;;10.67;6.40;;;10.20;99.90;;;;;;5097048;28;20288;-81
2023/02/12 12:43:06;;;;;;;9.67;6.40;;;10.30;99.90;;;;;;5082269;28;20225;-81
2023/02/12 12:46:03;;;;;;;10.37;6.83;;;10.20;99.90;;;;;;5086432;28;20225;-80
2023/02/12 12:48:45;;;;;;;12.33;7.17;;;10.20;99.90;;;;;;5078109;28;20198;-81
2023/02/12 12:51:24;;;;;;;11.87;7.57;;;10.20;99.90;;;;;;5093451;28;20709;-81
2023/02/12 12:54:05;;;;;;;11.53;7.33;;;10.20;99.90;;;;;;5086620;28;20204;-80
2023/02/12 12:56:45;;;;;;;14.23;8.23;;;10.10;99.90;;;;;;5088391;28;20203;-80
2023/02/12 12:59:56;;;;;;;15.10;9.27;;;10.20;99.90;;;;;;5099795;28;20211;-81
2023/02/12 13:03:01;;;;;;;13.27;8.30;;;10.10;99.90;;;;;;5081780;28;20706;-80
2023/02/12 13:05:53;;;;;;;13.70;8.80;;;10.00;99.90;;;;;;5089113;28;20221;-81
2023/02/12 13:08:33;;;;;;;12.23;7.80;;;10.00;99.90;;;;;;5095599;28;20204;-81